Time;durP1;ratioP1;P1;durP2;ratioP2;P2;SDS_P1;SDS_P2;PMS_P1;PMS_P2;Temp;Humidity;BMP_temperature;BMP_pressure;BME280_temperature;BME280_humidity;BME280_pressure;Samples;Min_cycle;Max_cycle;Signal;HPM_P1;HPM_P2
2023/05/13 00:03:27;;;;;;;12.80;5.70;;;;;;;10.07;47.75;99070.17;435926;1250;98847;-41
2023/05/13 00:13:31;;;;;;;8.60;5.70;;;;;;;9.97;48.15;99066.40;435872;1253;107360;-44
2023/05/13 00:23:35;;;;;;;12.70;6.00;;;;;;;9.91;48.19;99067.77;435866;1252;99214;-43
2023/05/13 00:33:42;;;;;;;10.00;6.40;;;;;;;9.83;48.52;99067.54;435760;1251;111281;-42
2023/05/13 00:43:45;;;;;;;11.00;5.90;;;;;;;9.75;48.78;99075.80;435804;1254;108174;-41
2023/05/13 00:53:50;;;;;;;9.40;5.00;;;;;;;9.69;48.93;99085.75;435679;1252;99231;-43
2023/05/13 01:04:00;;;;;;;7.90;5.90;;;;;;;9.71;49.23;99093.34;435925;1250;99209;-43
2023/05/13 01:14:17;;;;;;;13.30;6.10;;;;;;;9.57;49.64;99099.19;435811;1251;106920;-42
2023/05/13 01:24:21;;;;;;;9.60;5.30;;;;;;;9.37;49.85;99110.45;438036;1255;99186;-42
2023/05/13 01:34:26;;;;;;;8.70;5.50;;;;;;;9.25;50.30;99109.78;437550;1252;97985;-41
2023/05/13 01:44:31;;;;;;;12.30;5.70;;;;;;;9.22;50.55;99113.24;437667;1248;107606;-42
2023/05/13 01:54:34;;;;;;;10.30;7.20;;;;;;;9.09;51.17;99109.92;437676;1250;97975;-41
2023/05/13 02:04:38;;;;;;;17.50;7.10;;;;;;;8.96;51.74;99107.60;437677;1246;108707;-43
2023/05/13 02:14:42;;;;;;;12.50;6.60;;;;;;;8.85;52.25;99105.77;437775;1247;99317;-42
2023/05/13 02:24:46;;;;;;;9.80;6.00;;;;;;;8.80;52.51;99096.74;437693;1246;110302;-40
2023/05/13 02:34:50;;;;;;;10.20;6.70;;;;;;;8.78;52.89;99091.95;437576;1249;107992;-41
2023/05/13 02:44:54;;;;;;;9.10;5.80;;;;;;;8.65;53.22;99090.39;437734;1251;97991;-41
2023/05/13 02:54:58;;;;;;;8.20;5.50;;;;;;;8.69;53.22;99094.35;437700;1248;98296;-41
2023/05/13 03:05:02;;;;;;;11.90;7.40;;;;;;;8.71;53.38;99099.00;437584;1250;110097;-40
2023/05/13 03:15:08;;;;;;;13.00;6.60;;;;;;;8.55;53.59;99113.61;437713;1246;97994;-42
2023/05/13 03:25:15;;;;;;;9.30;6.00;;;;;;;8.51;53.75;99120.58;437663;1246;111329;-41
2023/05/13 03:35:19;;;;;;;14.30;6.70;;;;;;;8.96;53.89;99120.23;437567;1250;108423;-41
2023/05/13 03:45:22;;;;;;;9.20;6.50;;;;;;;10.35;53.19;99120.27;437215;1247;491353;-42
2023/05/13 03:55:25;;;;;;;11.60;6.20;;;;;;;11.40;52.48;99124.56;437724;1248;112230;-42
2023/05/13 04:15:36;;;;;;;11.50;6.00;;;;;;;13.42;50.55;99134.79;437574;1250;98230;-42
2023/05/13 04:35:45;;;;;;;11.70;6.60;;;;;;;13.93;49.24;99150.70;437766;1246;99753;-42
2023/05/13 04:45:49;;;;;;;10.00;6.10;;;;;;;13.43;48.79;99166.36;437579;1246;113045;-42
2023/05/13 05:06:03;;;;;;;12.60;7.10;;;;;;;11.49;50.41;99181.66;437793;1247;99097;-42
2023/05/13 05:26:11;;;;;;;12.40;6.80;;;;;;;11.93;51.35;99200.55;437610;1250;99229;-42
2023/05/13 05:36:16;;;;;;;11.00;6.60;;;;;;;12.30;51.93;99201.21;437558;1251;112348;-41
2023/05/13 05:56:24;;;;;;;8.90;6.20;;;;;;;15.69;50.43;99197.35;437625;1248;99228;-44
2023/05/13 06:06:28;;;;;;;11.60;7.70;;;;;;;16.70;49.13;99208.11;437717;1250;108832;-42
2023/05/13 06:26:35;;;;;;;11.80;5.50;;;;;;;16.93;47.39;99223.15;437708;1250;111497;-43
2023/05/13 06:36:39;;;;;;;9.10;4.50;;;;;;;16.98;46.99;99227.23;437731;1250;106813;-43
2023/05/13 06:46:42;;;;;;;9.70;4.70;;;;;;;17.49;46.43;99229.25;437718;1247;99210;-42
2023/05/13 06:56:46;;;;;;;6.90;4.10;;;;;;;17.93;45.23;99225.61;437627;1250;108139;-42
2023/05/13 07:16:53;;;;;;;13.30;3.90;;;;;;;17.19;43.74;99230.64;437595;1250;110787;-42
2023/05/13 07:26:57;;;;;;;8.60;3.70;;;;;;;17.54;43.36;99217.56;437684;1250;107251;-42
2023/05/13 07:37:02;;;;;;;7.10;3.40;;;;;;;17.28;42.16;99218.12;437874;1248;99209;-43
2023/05/13 07:47:10;;;;;;;8.10;3.90;;;;;;;17.44;41.48;99211.05;437762;1246;108142;-42
2023/05/13 07:57:14;;;;;;;9.10;3.70;;;;;;;17.29;41.15;99221.23;437919;1250;98144;-43
2023/05/13 08:07:17;;;;;;;14.70;4.80;;;;;;;17.50;40.44;99212.42;437642;1248;112063;-43
2023/05/13 08:17:21;;;;;;;3.80;3.40;;;;;;;17.56;40.22;99204.96;437864;1250;105932;-43
2023/05/13 08:27:29;;;;;;;7.70;3.00;;;;;;;18.03;39.74;99210.32;437684;1250;98712;-45
2023/05/13 08:37:33;;;;;;;7.60;2.70;;;;;;;18.54;38.28;99205.59;437690;1250;108237;-42
2023/05/13 08:47:39;;;;;;;5.40;2.30;;;;;;;18.71;37.00;99205.35;437804;1247;99208;-44
2023/05/13 08:57:42;;;;;;;12.70;2.30;;;;;;;18.73;36.17;99201.38;437685;1248;109632;-41
2023/05/13 09:07:46;;;;;;;10.30;2.20;;;;;;;18.59;34.89;99210.16;437561;1250;108985;-42
2023/05/13 09:17:51;;;;;;;7.90;2.80;;;;;;;18.52;35.03;99213.30;437647;1247;98581;-43
2023/05/13 09:27:57;;;;;;;8.80;3.30;;;;;;;18.90;34.84;99208.72;437715;1247;106799;-42
2023/05/13 09:38:01;;;;;;;7.10;3.10;;;;;;;19.09;34.41;99210.30;437240;1247;99611;-42
2023/05/13 09:48:07;;;;;;;14.70;2.80;;;;;;;19.46;33.67;99205.82;437417;1251;111627;-42
2023/05/13 09:58:10;;;;;;;5.60;2.80;;;;;;;19.37;32.95;99197.90;437283;1247;108346;-41
2023/05/13 10:08:14;;;;;;;3.70;2.50;;;;;;;19.09;33.07;99196.20;437292;1248;98013;-43
2023/05/13 10:18:20;;;;;;;6.30;2.90;;;;;;;19.12;32.77;99190.02;437349;1250;107208;-47
2023/05/13 10:38:52;;;;;;;9.00;2.40;;;;;;;19.36;33.63;99164.75;436425;1251;111394;-43
2023/05/13 10:48:59;;;;;;;8.40;3.40;;;;;;;19.89;31.79;99172.38;437140;1247;108306;-44
2023/05/13 10:59:04;;;;;;;9.00;3.20;;;;;;;19.85;31.86;99170.41;437667;1247;99234;-42
2023/05/13 11:09:12;;;;;;;7.50;2.70;;;;;;;19.78;31.59;99172.23;437542;1250;108462;-43
2023/05/13 11:29:29;;;;;;;8.40;2.50;;;;;;;20.26;31.47;99156.83;437556;1247;111303;-43
2023/05/13 11:39:34;;;;;;;4.70;2.40;;;;;;;20.42;31.13;99152.41;437376;1247;108641;-42
2023/05/13 11:59:41;;;;;;;4.60;3.00;;;;;;;19.86;32.18;99158.64;437583;1250;110694;-42
2023/05/13 12:09:52;;;;;;;9.20;2.60;;;;;;;19.14;32.33;99157.11;437549;1247;97973;-43
2023/05/13 12:20:09;;;;;;;9.70;3.00;;;;;;;19.10;32.36;99150.04;437459;1247;111742;-44
2023/05/13 12:30:14;;;;;;;8.10;3.30;;;;;;;19.48;31.88;99151.04;437377;1250;106803;-41
2023/05/13 12:40:16;;;;;;;9.50;3.70;;;;;;;19.53;32.24;99157.14;437428;1247;99248;-42
2023/05/13 12:50:25;;;;;;;4.80;2.90;;;;;;;19.47;31.46;99161.77;437643;1250;108854;-42
2023/05/13 13:00:28;;;;;;;;;;;;;;;19.67;31.93;99146.45;437596;1250;98000;-41
2023/05/13 13:10:32;;;;;;;4.10;3.00;;;;;;;19.79;31.67;99144.25;437563;1247;110908;-43
2023/05/13 13:40:44;;;;;;;5.90;2.50;;;;;;;18.96;32.98;99138.98;437677;1251;107608;-43
2023/05/13 13:50:47;;;;;;;3.40;2.70;;;;;;;18.68;33.34;99142.45;437558;1247;99215;-41
2023/05/13 14:00:53;;;;;;;7.40;2.60;;;;;;;18.96;33.12;99134.58;437388;1250;111173;-42
2023/05/13 14:10:57;;;;;;;8.60;2.80;;;;;;;19.23;32.47;99148.07;437445;1247;108253;-42
2023/05/13 14:21:04;;;;;;;2.50;2.30;;;;;;;19.15;32.45;99145.69;437496;1250;99218;-42
2023/05/13 14:31:12;;;;;;;3.80;2.00;;;;;;;19.16;32.71;99139.29;437518;1250;107653;-42
2023/05/13 14:41:18;;;;;;;5.30;2.30;;;;;;;19.46;32.34;99136.45;437517;1247;99215;-42
2023/05/13 14:51:22;;;;;;;2.80;2.40;;;;;;;19.28;31.78;99142.27;437586;1250;112232;-42
2023/05/13 15:01:30;;;;;;;4.90;2.80;;;;;;;18.97;32.58;99136.52;437485;1247;107245;-42
2023/05/13 15:11:38;;;;;;;;;;;;;;;19.04;32.96;99131.46;437347;1250;99233;-42
2023/05/13 15:21:43;;;;;;;6.10;2.40;;;;;;;19.08;32.59;99130.85;437545;1246;107368;-42
2023/05/13 15:41:53;;;;;;;3.10;2.10;;;;;;;18.59;33.39;99136.55;437272;1250;312585;-41
2023/05/13 15:51:57;;;;;;;5.10;2.30;;;;;;;18.50;33.73;99134.84;437544;1250;108930;-40
2023/05/13 16:02:01;;;;;;;6.50;3.00;;;;;;;18.42;33.64;99125.68;437602;1247;98846;-42
2023/05/13 16:12:04;;;;;;;9.00;2.80;;;;;;;18.04;33.96;99123.95;437461;1248;108623;-42
2023/05/13 16:22:25;;;;;;;3.10;2.60;;;;;;;18.02;34.27;99109.19;437704;1247;97908;-43
2023/05/13 16:32:29;;;;;;;6.70;2.70;;;;;;;18.03;34.22;99108.66;437714;1250;110645;-43
2023/05/13 16:42:37;;;;;;;7.20;2.60;;;;;;;17.99;34.62;99115.13;437448;1250;109522;-42
2023/05/13 17:02:44;;;;;;;2.70;2.10;;;;;;;17.71;34.82;99118.44;437360;1250;107698;-43
2023/05/13 17:12:49;;;;;;;3.70;2.70;;;;;;;17.50;35.23;99118.99;437466;1248;99231;-42
2023/05/13 17:22:52;;;;;;;5.00;2.90;;;;;;;17.32;35.65;99119.84;437494;1250;112178;-41
2023/05/13 17:32:56;;;;;;;3.80;2.80;;;;;;;17.09;36.30;99121.66;437476;1250;108643;-45
2023/05/13 17:53:05;;;;;;;6.40;3.40;;;;;;;16.65;37.27;99116.69;437443;1248;108410;-43
2023/05/13 18:03:09;;;;;;;5.50;3.80;;;;;;;16.41;37.51;99116.89;437432;1250;99219;-43
2023/05/13 18:13:17;;;;;;;6.40;4.70;;;;;;;16.14;37.91;99116.55;437430;1248;110874;-42
2023/05/13 18:23:20;;;;;;;5.80;3.40;;;;;;;15.86;38.50;99118.96;437268;1248;107860;-42
2023/05/13 18:33:24;;;;;;;10.20;5.60;;;;;;;15.55;39.00;99135.73;437522;1248;99279;-42
2023/05/13 18:43:27;;;;;;;12.60;6.00;;;;;;;15.17;39.68;99154.91;437464;1250;109427;-43
2023/05/13 18:53:31;;;;;;;10.00;6.30;;;;;;;14.61;40.52;99159.55;437439;1248;99209;-41
2023/05/13 19:03:35;;;;;;;13.10;6.10;;;;;;;14.29;41.42;99163.52;437528;1252;111916;-42
2023/05/13 19:13:40;;;;;;;16.70;8.50;;;;;;;14.02;42.35;99168.11;437426;1250;107234;-43
2023/05/13 19:23:49;;;;;;;18.90;11.50;;;;;;;13.71;43.36;99166.48;437532;1250;99224;-43
2023/05/13 19:33:53;;;;;;;25.20;14.20;;;;;;;13.41;44.11;99174.47;437221;1250;108419;-42
2023/05/13 19:43:57;;;;;;;21.50;12.00;;;;;;;13.07;44.80;99179.23;437517;1250;97905;-42
2023/05/13 19:54:01;;;;;;;19.50;11.30;;;;;;;12.70;45.47;99186.30;437453;1260;110663;-41
2023/05/13 20:04:08;;;;;;;21.80;11.00;;;;;;;12.34;46.50;99187.23;437442;1260;108659;-42
2023/05/13 20:14:21;;;;;;;36.20;14.30;;;;;;;11.97;47.30;99192.81;437495;1248;99207;-41
2023/05/13 20:24:25;;;;;;;23.70;13.60;;;;;;;11.60;48.14;99188.54;437433;1260;107678;-42
2023/05/13 20:34:29;;;;;;;30.80;14.80;;;;;;;11.27;49.12;99185.54;437321;1260;99225;-42
2023/05/13 20:44:33;;;;;;;28.00;15.10;;;;;;;10.95;50.08;99182.69;437501;1248;112436;-41
2023/05/13 20:54:37;;;;;;;28.50;13.10;;;;;;;10.73;50.98;99180.20;437587;1247;108366;-42
2023/05/13 21:04:40;;;;;;;26.70;14.00;;;;;;;10.60;51.73;99170.26;437425;1260;98842;-42
2023/05/13 21:14:44;;;;;;;23.30;14.90;;;;;;;10.46;52.27;99166.51;437455;1250;108361;-42
2023/05/13 21:24:49;;;;;;;22.70;14.00;;;;;;;10.14;52.91;99171.27;437510;1260;100919;-42
2023/05/13 21:34:56;;;;;;;29.80;15.10;;;;;;;9.89;53.77;99177.35;437554;1251;110870;-42
2023/05/13 21:45:03;;;;;;;31.20;13.70;;;;;;;9.68;54.54;99182.29;437516;1250;109375;-42
2023/05/13 21:55:09;;;;;;;18.90;13.10;;;;;;;9.49;55.10;99178.42;437318;1260;99202;-42
2023/05/13 22:05:12;;;;;;;17.30;11.20;;;;;;;9.39;55.52;99170.86;437425;1247;109322;-43
2023/05/13 22:15:19;;;;;;;23.30;12.80;;;;;;;9.37;56.15;99164.09;437392;1260;99219;-41
2023/05/13 22:25:32;;;;;;;24.20;13.90;;;;;;;9.32;56.74;99161.06;437380;1250;112787;-41
2023/05/13 22:35:38;;;;;;;24.30;13.40;;;;;;;9.18;57.34;99159.23;437411;1251;108009;-42
2023/05/13 22:45:42;;;;;;;24.70;14.30;;;;;;;8.92;57.63;99158.30;437300;1251;99272;-42
2023/05/13 22:55:46;;;;;;;24.50;14.30;;;;;;;8.65;58.18;99162.01;437493;1248;111657;-42
2023/05/13 23:05:50;;;;;;;20.90;13.20;;;;;;;8.46;58.67;99154.06;437387;1250;99922;-41
2023/05/13 23:15:54;;;;;;;24.90;13.00;;;;;;;8.36;58.86;99141.30;437481;1247;111860;-44
2023/05/13 23:25:57;;;;;;;25.60;13.60;;;;;;;8.25;59.26;99131.97;437391;1248;108284;-42
2023/05/13 23:36:01;;;;;;;25.20;15.30;;;;;;;8.19;59.76;99125.98;437462;1248;100167;-42
2023/05/13 23:46:05;;;;;;;28.30;15.80;;;;;;;8.15;60.36;99122.01;437576;1250;108285;-42
2023/05/13 23:56:11;;;;;;;24.70;15.40;;;;;;;8.01;60.88;99110.65;437460;1251;97982;-43
